KDEQ

J Lynn Helms Sevier County Airport

De Queen, Arkansas, USA
METAR KDEQ 161553Z AUTO 00000KT 10SM CLR 10/06 A3017 RMK AO2 SLP217 T01000056
Observed Flight Rules
Nov-16 @ 15:53 UTC (45 minutes ago) Visual Flight Rules
Visibility Clouds
10 miles
  • Clear skies
Temperatures Readings
Current 10°C / 50°F
Dewpoint 6°C / 43°F
Humidity 76%
Altimeter 30.17" Hg
Pressure 1021.7 hPa
Elevation 106
METAR KDEQ 161553Z AUTO 00000KT 10SM CLR 10/06 A3017 RMK AO2 SLP217 T01000056
Observed Flight Rules
Nov-16 @ 15:53 UTC
(45 minutes ago)
VFR
Clouds
  • Clear skies
Temperature Dewpoint
10°C / 50°F 6°C / 43°F
Humidity Altimeter Pressure
76% 30.17" Hg 1021.7 hPa